SKBQ/BAQ METAR and TAF weather

Enter ICAO airport designator
Station Type Date Time Source
SKBQ METAR 2021/09/20 05:00 UTC NOAA

SKBQ 200500Z 01006KT 320V050 9999 SCT012 28/24 Q1010 NOSIG RMK A2984


Station Type Date Time Source
SKBQ Decoded METAR 2021/09/20 05:00 UTC NOAA

Barranquilla / Ernestocortissoz, Colombia (SKBQ) 10-53N 074-47W 30M
Sep 20, 2021 - 01:00 AM EDT / 2021.09.20 0500 UTC
Wind: from the N (010 degrees) at 7 MPH (6 KT) (direction variable):0
Visibility: greater than 7 mile(s):0
Sky conditions: partly cloudy
Temperature: 82 F (28 C)
Dew Point: 75 F (24 C)
Relative Humidity: 78%
Pressure (altimeter): 29.83 in. Hg (1010 hPa)
ob: SKBQ 200500Z 01006KT 320V050 9999 SCT012 28/24 Q1010 NOSIG RMK A2984
cycle: 5

Station Type Date Time Source
SKBQ TAF 2021/09/20 06:42 UTC NOAA

TAF SKBQ 200430Z 2006/2106 02006KT 9999 FEW015 PROB40
TEMPO 2008/2012 DZ BKN008
TEMPO 2018/2021 5000 RA SCT015CB TX32/2017Z TN26/2009Z

Example: see airport list